createdAt,value
2018-09-26T00:00:10.849Z,10.44
2018-09-26T00:01:10.812Z,10.5
2018-09-26T00:02:10.745Z,10.5
2018-09-26T00:03:10.997Z,10.5
2018-09-26T00:04:11.278Z,10.5
2018-09-26T00:05:11.020Z,10.5
2018-09-26T00:06:10.931Z,10.5
2018-09-26T00:07:10.915Z,10.5
2018-09-26T00:08:10.724Z,10.5
2018-09-26T00:09:10.946Z,10.44
2018-09-26T00:10:10.910Z,10.44
2018-09-26T00:11:10.939Z,10.44
2018-09-26T00:12:11.048Z,10.44
2018-09-26T00:13:10.892Z,10.44
2018-09-26T00:14:10.789Z,10.44
2018-09-26T00:15:10.833Z,10.44
2018-09-26T00:16:10.884Z,10.44
2018-09-26T00:17:10.893Z,10.44
2018-09-26T00:18:11.156Z,10.38
2018-09-26T00:19:10.923Z,10.38
2018-09-26T00:20:10.724Z,10.38
2018-09-26T00:21:10.917Z,10.38
2018-09-26T00:22:10.972Z,10.38
2018-09-26T00:23:10.841Z,10.44
2018-09-26T00:24:10.840Z,10.38
2018-09-26T00:25:10.725Z,10.38
2018-09-26T00:26:10.926Z,10.44
2018-09-26T00:27:11.043Z,10.38
2018-09-26T00:28:10.781Z,10.38
2018-09-26T00:29:10.989Z,10.31
2018-09-26T00:30:11.071Z,10.38
2018-09-26T00:31:11.026Z,10.38
2018-09-26T00:32:11.001Z,10.38
2018-09-26T00:33:10.926Z,10.31
2018-09-26T00:34:10.735Z,10.31
2018-09-26T00:35:11.265Z,10.38
2018-09-26T00:36:12.980Z,10.31
2018-09-26T00:37:10.871Z,10.31
2018-09-26T00:38:11.089Z,10.31
2018-09-26T00:39:10.812Z,10.31
2018-09-26T00:40:10.879Z,10.25
2018-09-26T00:41:11.034Z,10.31
2018-09-26T00:42:11.177Z,10.31
2018-09-26T00:43:10.858Z,10.25
2018-09-26T00:44:10.845Z,10.25
2018-09-26T00:45:10.836Z,10.25
2018-09-26T00:46:10.850Z,10.25
2018-09-26T00:47:10.955Z,10.19
2018-09-26T00:48:10.835Z,10.19
2018-09-26T00:49:10.702Z,10.19
2018-09-26T00:50:10.690Z,10.19
2018-09-26T00:51:10.740Z,10.19
2018-09-26T00:52:10.755Z,10.13
2018-09-26T00:53:10.850Z,10.06
2018-09-26T00:54:10.872Z,10.06
2018-09-26T00:55:10.836Z,10.06
2018-09-26T00:56:10.904Z,10.06
2018-09-26T00:57:10.881Z,10.13
2018-09-26T00:58:10.975Z,10.06
2018-09-26T00:59:10.658Z,10
2018-09-26T01:00:10.898Z,10
2018-09-26T01:01:10.716Z,10
2018-09-26T01:02:10.697Z,10
2018-09-26T01:03:10.846Z,10
2018-09-26T01:04:10.698Z,10
2018-09-26T01:05:10.762Z,10
2018-09-26T01:06:11.131Z,10
2018-09-26T01:07:10.946Z,10
2018-09-26T01:08:10.709Z,10
2018-09-26T01:09:10.847Z,10
2018-09-26T01:10:10.772Z,10
2018-09-26T01:11:10.795Z,10
2018-09-26T01:12:10.915Z,10
2018-09-26T01:13:10.811Z,10
2018-09-26T01:14:10.870Z,10
2018-09-26T01:15:10.903Z,10
2018-09-26T01:16:10.648Z,10
2018-09-26T01:17:10.720Z,10
2018-09-26T01:18:10.645Z,10
2018-09-26T01:19:10.926Z,10
2018-09-26T01:20:10.931Z,10
2018-09-26T01:21:10.816Z,9.94
2018-09-26T01:22:10.841Z,9.94
2018-09-26T01:23:10.821Z,9.94
2018-09-26T01:24:10.978Z,9.94
2018-09-26T01:25:10.844Z,9.94
2018-09-26T01:26:10.673Z,9.94
2018-09-26T01:27:10.841Z,9.94
2018-09-26T01:28:10.666Z,9.88
2018-09-26T01:29:10.789Z,9.88
2018-09-26T01:30:10.677Z,9.88
2018-09-26T01:31:10.878Z,9.94
2018-09-26T01:32:10.781Z,9.88
2018-09-26T01:33:10.827Z,9.88
2018-09-26T01:34:10.805Z,9.88
2018-09-26T01:35:10.897Z,9.88
2018-09-26T01:36:10.854Z,9.88
2018-09-26T01:37:10.788Z,9.81
2018-09-26T01:38:10.836Z,9.88
2018-09-26T01:39:10.707Z,9.81
2018-09-26T01:40:10.747Z,9.88
2018-09-26T01:41:10.646Z,9.81
2018-09-26T01:42:10.836Z,9.75
2018-09-26T01:43:10.688Z,9.75
2018-09-26T01:44:10.893Z,9.75
2018-09-26T01:45:10.850Z,9.75
2018-09-26T01:46:10.759Z,9.75
2018-09-26T01:47:10.813Z,9.75
2018-09-26T01:48:11.085Z,9.75
2018-09-26T01:49:10.651Z,9.69
2018-09-26T01:50:10.886Z,9.69
2018-09-26T01:51:10.992Z,9.75
2018-09-26T01:52:11.081Z,9.75
2018-09-26T01:53:10.691Z,9.69
2018-09-26T01:54:10.630Z,9.75
2018-09-26T01:55:10.779Z,9.69
2018-09-26T01:56:10.918Z,9.69
2018-09-26T01:57:11.126Z,9.69
2018-09-26T01:58:10.657Z,9.63
2018-09-26T01:59:10.827Z,9.63
2018-09-26T02:00:10.566Z,9.63
2018-09-26T02:01:10.743Z,9.56
2018-09-26T02:02:10.743Z,9.56
2018-09-26T02:03:10.717Z,9.63
2018-09-26T02:04:10.573Z,9.56
2018-09-26T02:05:10.641Z,9.56
2018-09-26T02:06:10.595Z,9.56
2018-09-26T02:07:10.597Z,9.56
2018-09-26T02:08:10.759Z,9.56
2018-09-26T02:09:10.762Z,9.56
2018-09-26T02:10:10.743Z,9.5
2018-09-26T02:11:10.756Z,9.5
2018-09-26T02:12:10.752Z,9.5
2018-09-26T02:13:10.769Z,9.5
2018-09-26T02:14:10.590Z,9.56
2018-09-26T02:15:10.731Z,9.5
2018-09-26T02:16:10.601Z,9.5
2018-09-26T02:17:10.688Z,9.5
2018-09-26T02:18:10.748Z,9.5
2018-09-26T02:19:10.728Z,9.5
2018-09-26T02:20:10.747Z,9.5
2018-09-26T02:21:11.161Z,9.56
2018-09-26T02:22:10.765Z,9.5
2018-09-26T02:23:10.559Z,9.5
2018-09-26T02:24:10.964Z,9.5
2018-09-26T02:25:10.781Z,9.5
2018-09-26T02:26:10.781Z,9.5
2018-09-26T02:27:10.664Z,9.5
2018-09-26T02:28:10.803Z,9.44
2018-09-26T02:29:10.676Z,9.5
2018-09-26T02:30:10.753Z,9.5
2018-09-26T02:31:10.679Z,9.44
2018-09-26T02:32:10.916Z,9.44
2018-09-26T02:33:10.745Z,9.44
2018-09-26T02:34:11.019Z,9.5
2018-09-26T02:35:10.695Z,9.44
2018-09-26T02:36:10.729Z,9.44
2018-09-26T02:37:10.887Z,9.38
2018-09-26T02:38:10.771Z,9.38
2018-09-26T02:39:10.535Z,9.38
2018-09-26T02:40:10.541Z,9.31
2018-09-26T02:41:10.613Z,9.38
2018-09-26T02:42:10.703Z,9.38
2018-09-26T02:43:10.705Z,9.31
2018-09-26T02:44:10.849Z,9.31
2018-09-26T02:45:10.813Z,9.38
2018-09-26T02:46:10.779Z,9.31
2018-09-26T02:47:10.803Z,9.31
2018-09-26T02:48:10.837Z,9.38
2018-09-26T02:49:10.728Z,9.31
2018-09-26T02:50:11.134Z,9.38
2018-09-26T02:51:10.642Z,9.31
2018-09-26T02:52:10.799Z,9.31
2018-09-26T02:53:10.725Z,9.31
2018-09-26T02:54:10.731Z,9.31
2018-09-26T02:55:10.770Z,9.31
2018-09-26T02:56:10.570Z,9.31
2018-09-26T02:57:10.678Z,9.31
2018-09-26T02:58:10.682Z,9.31
2018-09-26T02:59:10.536Z,9.31
2018-09-26T03:00:10.796Z,9.31
2018-09-26T03:01:10.733Z,9.31
2018-09-26T03:02:10.733Z,9.31
2018-09-26T03:03:10.691Z,9.31
2018-09-26T03:04:10.738Z,9.31
2018-09-26T03:05:10.559Z,9.31
2018-09-26T03:06:10.581Z,9.25
2018-09-26T03:07:10.663Z,9.25
2018-09-26T03:08:10.740Z,9.25
2018-09-26T03:09:10.677Z,9.19
2018-09-26T03:10:10.665Z,9.19
2018-09-26T03:11:10.631Z,9.19
2018-09-26T03:12:10.625Z,9.19
2018-09-26T03:13:10.520Z,9.13
2018-09-26T03:14:10.823Z,9.13
2018-09-26T03:15:10.586Z,9.13
2018-09-26T03:16:10.693Z,9.13
2018-09-26T03:17:11.044Z,9.19
2018-09-26T03:18:11.319Z,9.13
2018-09-26T03:19:10.611Z,9.13
2018-09-26T03:20:10.584Z,9.13
2018-09-26T03:21:10.793Z,9.06
2018-09-26T03:22:10.637Z,9.06
2018-09-26T03:23:10.808Z,9.06
2018-09-26T03:24:10.667Z,9.06
2018-09-26T03:25:10.495Z,9.06
2018-09-26T03:26:10.737Z,9.13
2018-09-26T03:27:10.670Z,9
2018-09-26T03:28:10.628Z,9.06
2018-09-26T03:29:10.680Z,9.06
2018-09-26T03:30:10.822Z,9.06
2018-09-26T03:31:10.614Z,9.06
2018-09-26T03:32:10.653Z,9.06
2018-09-26T03:33:10.453Z,9
2018-09-26T03:34:10.933Z,9
2018-09-26T03:35:10.464Z,9
2018-09-26T03:36:10.669Z,9.06
2018-09-26T03:37:10.680Z,9.06
2018-09-26T03:38:10.532Z,8.94
2018-09-26T03:39:10.501Z,8.94
2018-09-26T03:40:10.642Z,8.94
2018-09-26T03:41:10.459Z,8.81
2018-09-26T03:42:10.453Z,8.81
2018-09-26T03:43:10.471Z,8.81
2018-09-26T03:44:10.622Z,8.81
2018-09-26T03:45:10.702Z,8.81
2018-09-26T03:46:11.047Z,8.81
2018-09-26T03:47:10.464Z,8.81
2018-09-26T03:48:10.783Z,8.81
2018-09-26T03:49:10.545Z,8.81
2018-09-26T03:50:10.606Z,8.81
2018-09-26T03:51:10.663Z,8.81
2018-09-26T03:52:10.599Z,8.81
2018-09-26T03:53:10.539Z,8.75
2018-09-26T03:54:10.546Z,8.81
2018-09-26T03:55:10.990Z,8.81
2018-09-26T03:56:10.595Z,8.81
2018-09-26T03:57:10.672Z,8.81
2018-09-26T03:58:10.630Z,8.81
2018-09-26T03:59:10.671Z,8.81
2018-09-26T04:00:10.756Z,8.75
2018-09-26T04:01:10.704Z,8.81
2018-09-26T04:02:10.438Z,8.81
2018-09-26T04:03:10.470Z,8.81
2018-09-26T04:04:10.615Z,8.75
2018-09-26T04:05:10.562Z,8.75
2018-09-26T04:06:10.548Z,8.81
2018-09-26T04:07:10.575Z,8.81
2018-09-26T04:08:10.498Z,8.81
2018-09-26T04:09:10.620Z,8.75
2018-09-26T04:10:10.646Z,8.75
2018-09-26T04:11:10.654Z,8.75
2018-09-26T04:12:10.679Z,8.81
2018-09-26T04:13:11.325Z,8.75
2018-09-26T04:14:10.643Z,8.81
2018-09-26T04:15:11.276Z,8.81
2018-09-26T04:16:10.648Z,8.81
2018-09-26T04:17:10.498Z,8.81
2018-09-26T04:18:10.661Z,8.75
2018-09-26T04:19:10.565Z,8.75
2018-09-26T04:20:10.770Z,8.75
2018-09-26T04:21:10.471Z,8.81
2018-09-26T04:22:10.688Z,8.81
2018-09-26T04:23:10.592Z,8.75
2018-09-26T04:24:10.528Z,8.75
2018-09-26T04:25:10.725Z,8.75
2018-09-26T04:26:11.284Z,8.75
2018-09-26T04:27:11.901Z,8.81
2018-09-26T04:28:10.526Z,8.81
2018-09-26T04:29:10.729Z,8.81
2018-09-26T04:30:10.546Z,8.81
2018-09-26T04:31:10.508Z,8.81
2018-09-26T04:32:10.616Z,8.88
2018-09-26T04:33:13.416Z,8.88
2018-09-26T04:34:10.615Z,8.88
2018-09-26T04:35:10.939Z,8.88
2018-09-26T04:36:10.849Z,8.81
2018-09-26T04:37:10.404Z,8.88
2018-09-26T04:38:10.598Z,8.88
2018-09-26T04:39:10.665Z,8.88
2018-09-26T04:40:10.511Z,8.88
2018-09-26T04:41:10.398Z,8.88
2018-09-26T04:42:10.646Z,8.88
2018-09-26T04:43:10.888Z,8.88
2018-09-26T04:44:10.393Z,8.88
2018-09-26T04:45:10.364Z,8.81
2018-09-26T04:46:10.510Z,8.81
2018-09-26T04:47:10.360Z,8.75
2018-09-26T04:48:10.496Z,8.81
2018-09-26T04:49:10.327Z,8.81
2018-09-26T04:50:10.512Z,8.81
2018-09-26T04:51:10.413Z,8.81
2018-09-26T04:52:10.336Z,8.81
2018-09-26T04:53:10.371Z,8.75
2018-09-26T04:54:10.571Z,8.81
2018-09-26T04:55:10.503Z,8.81
2018-09-26T04:56:10.770Z,8.75
2018-09-26T04:57:10.511Z,8.75
2018-09-26T04:58:11.016Z,8.75
2018-09-26T04:59:10.461Z,8.75
2018-09-26T05:00:10.481Z,8.75
2018-09-26T05:01:10.513Z,8.75
2018-09-26T05:02:10.343Z,8.69
2018-09-26T05:03:10.350Z,8.75
2018-09-26T05:04:10.328Z,8.69
2018-09-26T05:05:10.372Z,8.69
2018-09-26T05:06:10.666Z,8.69
2018-09-26T05:07:10.556Z,8.69
2018-09-26T05:08:10.943Z,8.69
2018-09-26T05:09:10.783Z,8.63
2018-09-26T05:10:10.499Z,8.63
2018-09-26T05:11:10.798Z,8.63
2018-09-26T05:12:10.528Z,8.63
2018-09-26T05:13:10.659Z,8.56
2018-09-26T05:14:10.528Z,8.63
2018-09-26T05:15:10.516Z,8.56
2018-09-26T05:16:10.573Z,8.56
2018-09-26T05:17:10.376Z,8.56
2018-09-26T05:18:10.438Z,8.56
2018-09-26T05:19:10.481Z,8.56
2018-09-26T05:20:10.433Z,8.56
2018-09-26T05:21:10.683Z,8.5
2018-09-26T05:22:10.497Z,8.5
2018-09-26T05:23:10.970Z,8.5
2018-09-26T05:24:10.484Z,8.5
2018-09-26T05:25:10.708Z,8.5
2018-09-26T05:26:10.611Z,8.44
2018-09-26T05:27:10.463Z,8.44
2018-09-26T05:28:10.293Z,8.44
2018-09-26T05:29:10.392Z,8.44
2018-09-26T05:30:10.647Z,8.44
2018-09-26T05:31:10.548Z,8.44
2018-09-26T05:32:10.639Z,8.44
2018-09-26T05:33:10.510Z,8.44
2018-09-26T05:34:10.458Z,8.5
2018-09-26T05:35:10.602Z,8.44
2018-09-26T05:36:10.444Z,8.44
2018-09-26T05:37:10.842Z,8.44
2018-09-26T05:38:10.301Z,8.44
2018-09-26T05:39:10.297Z,8.5
2018-09-26T05:40:10.906Z,8.44
2018-09-26T05:41:10.290Z,8.44
2018-09-26T05:42:10.419Z,8.44
2018-09-26T05:43:10.534Z,8.5
2018-09-26T05:44:10.557Z,8.5
2018-09-26T05:45:10.492Z,8.5
2018-09-26T05:46:10.593Z,8.5
2018-09-26T05:47:10.537Z,8.5
2018-09-26T05:48:10.529Z,8.56
2018-09-26T05:49:10.544Z,8.5
2018-09-26T05:50:10.584Z,8.56
2018-09-26T05:51:10.548Z,8.5
2018-09-26T05:52:10.339Z,8.56
2018-09-26T05:53:10.388Z,8.5
2018-09-26T05:54:10.583Z,8.5
2018-09-26T05:55:10.425Z,8.5
2018-09-26T05:56:10.706Z,8.56
2018-09-26T05:57:10.453Z,8.56
2018-09-26T05:58:10.300Z,8.56
2018-09-26T05:59:10.245Z,8.56
2018-09-26T06:00:10.563Z,8.56
2018-09-26T06:01:10.362Z,8.63
2018-09-26T06:02:10.480Z,8.56
2018-09-26T06:03:10.473Z,8.63
2018-09-26T06:04:10.350Z,8.63
2018-09-26T06:05:10.277Z,8.63
2018-09-26T06:06:10.393Z,8.69
2018-09-26T06:07:10.236Z,8.69
2018-09-26T06:08:10.444Z,8.75
2018-09-26T06:09:10.453Z,8.75
2018-09-26T06:10:10.583Z,8.75
2018-09-26T06:11:10.472Z,8.75
2018-09-26T06:12:10.408Z,8.75
2018-09-26T06:13:10.378Z,8.69
2018-09-26T06:14:10.420Z,8.69
2018-09-26T06:15:10.386Z,8.69
2018-09-26T06:16:10.296Z,8.69
2018-09-26T06:17:10.228Z,8.69
2018-09-26T06:18:10.373Z,8.69
2018-09-26T06:19:10.416Z,8.75
2018-09-26T06:20:10.417Z,8.75
2018-09-26T06:21:10.365Z,8.75
2018-09-26T06:22:10.377Z,8.75
2018-09-26T06:23:10.228Z,8.75
2018-09-26T06:24:10.377Z,8.75
2018-09-26T06:25:10.391Z,8.81
2018-09-26T06:26:10.503Z,8.75
2018-09-26T06:27:10.192Z,8.75
2018-09-26T06:28:11.743Z,8.75
2018-09-26T06:29:10.251Z,8.75
2018-09-26T06:30:10.187Z,8.81
2018-09-26T06:31:10.388Z,8.81
2018-09-26T06:32:10.224Z,8.81
2018-09-26T06:33:10.227Z,8.81
2018-09-26T06:34:10.471Z,8.81
2018-09-26T06:35:10.368Z,8.88
2018-09-26T06:36:10.256Z,8.88
2018-09-26T06:37:10.222Z,8.88
2018-09-26T06:38:10.274Z,8.88
2018-09-26T06:39:10.377Z,8.94
2018-09-26T06:40:10.337Z,8.94
2018-09-26T06:41:10.147Z,9
2018-09-26T06:42:10.350Z,8.94
2018-09-26T06:43:10.371Z,8.94
2018-09-26T06:44:10.201Z,8.94
2018-09-26T06:45:10.464Z,9
2018-09-26T06:46:10.387Z,8.94
2018-09-26T06:47:10.170Z,8.94
2018-09-26T06:48:10.507Z,9
2018-09-26T06:49:10.322Z,9
2018-09-26T06:50:10.313Z,9.06
2018-09-26T06:51:10.249Z,9.06
2018-09-26T06:52:10.411Z,9.06
2018-09-26T06:53:10.245Z,9.13
2018-09-26T06:54:11.189Z,9.13
2018-09-26T06:55:10.656Z,9.13
2018-09-26T06:56:10.816Z,9.19
2018-09-26T06:57:10.333Z,9.25
2018-09-26T06:58:10.360Z,9.25
2018-09-26T06:59:11.199Z,9.25
2018-09-26T07:00:10.546Z,9.25
2018-09-26T07:01:10.307Z,9.25
2018-09-26T07:02:10.173Z,9.31
2018-09-26T07:03:10.589Z,9.31
2018-09-26T07:04:10.239Z,9.38
2018-09-26T07:05:10.274Z,9.38
2018-09-26T07:06:10.709Z,9.38
2018-09-26T07:07:10.352Z,9.44
2018-09-26T07:08:10.192Z,9.44
2018-09-26T07:09:10.145Z,9.44
2018-09-26T07:10:10.206Z,9.5
2018-09-26T07:11:10.316Z,9.5
2018-09-26T07:12:10.811Z,9.56
2018-09-26T07:13:10.246Z,9.63
2018-09-26T07:14:10.336Z,9.63
2018-09-26T07:15:10.379Z,9.69
2018-09-26T07:16:10.294Z,9.69
2018-09-26T07:17:10.172Z,9.75
2018-09-26T07:18:10.224Z,9.75
2018-09-26T07:19:10.309Z,9.75
2018-09-26T07:20:10.127Z,9.75
2018-09-26T07:21:10.416Z,9.88
2018-09-26T07:22:10.442Z,9.88
2018-09-26T07:23:10.298Z,9.88
2018-09-26T07:24:10.355Z,9.88
2018-09-26T07:25:10.172Z,9.88
2018-09-26T07:26:10.281Z,9.94
2018-09-26T07:27:10.384Z,9.94
2018-09-26T07:28:10.382Z,10
2018-09-26T07:29:10.290Z,10
2018-09-26T07:30:10.273Z,10.06
2018-09-26T07:31:10.306Z,10.06
2018-09-26T07:32:10.569Z,10.13
2018-09-26T07:33:10.297Z,10.13
2018-09-26T07:34:10.126Z,10.13
2018-09-26T07:35:10.277Z,10.13
2018-09-26T07:36:10.286Z,10.19
2018-09-26T07:37:10.743Z,10.19
2018-09-26T07:38:10.116Z,10.25
2018-09-26T07:39:10.295Z,10.19
2018-09-26T07:40:10.144Z,10.25
2018-09-26T07:41:10.253Z,10.25
2018-09-26T07:42:10.098Z,10.31
2018-09-26T07:43:10.268Z,10.25
2018-09-26T07:44:10.300Z,10.31
2018-09-26T07:45:10.306Z,10.31
2018-09-26T07:46:10.119Z,10.31
2018-09-26T07:47:10.250Z,10.31
2018-09-26T07:48:10.272Z,10.38
2018-09-26T07:49:10.327Z,10.38
2018-09-26T07:50:10.281Z,10.38
2018-09-26T07:51:10.245Z,10.38
2018-09-26T07:52:10.099Z,10.38
2018-09-26T07:53:11.066Z,10.44
2018-09-26T07:54:10.312Z,10.44
2018-09-26T07:55:10.450Z,10.44
2018-09-26T07:56:10.450Z,10.5
2018-09-26T07:57:10.138Z,10.5
2018-09-26T07:58:10.304Z,10.56
2018-09-26T07:59:11.787Z,10.5
2018-09-26T08:00:10.185Z,10.63
2018-09-26T08:01:10.408Z,10.63
2018-09-26T08:02:10.357Z,10.69
2018-09-26T08:03:10.420Z,10.69
2018-09-26T08:04:10.413Z,10.69
2018-09-26T08:05:10.219Z,10.63
2018-09-26T08:06:10.247Z,10.75
2018-09-26T08:07:10.410Z,10.75
2018-09-26T08:08:10.448Z,10.75
2018-09-26T08:09:10.444Z,10.75
2018-09-26T08:10:10.387Z,10.81
2018-09-26T08:11:10.677Z,10.88
2018-09-26T08:12:10.286Z,10.88
2018-09-26T08:13:10.078Z,10.94
2018-09-26T08:14:10.123Z,11
2018-09-26T08:15:10.205Z,11
2018-09-26T08:16:10.285Z,11.06
2018-09-26T08:17:10.129Z,11.06
2018-09-26T08:18:10.779Z,11.06
2018-09-26T08:19:10.253Z,11.12
2018-09-26T08:20:10.296Z,11.12
2018-09-26T08:21:10.330Z,11.19
2018-09-26T08:22:10.303Z,11.19
2018-09-26T08:23:10.143Z,11.19
2018-09-26T08:24:11.846Z,11.19
2018-09-26T08:25:10.085Z,11.25
2018-09-26T08:26:10.185Z,11.19
2018-09-26T08:27:10.169Z,11.25
2018-09-26T08:28:10.478Z,11.19
2018-09-26T08:29:10.223Z,11.25
2018-09-26T08:30:11.493Z,11.25
2018-09-26T08:31:10.196Z,11.31
2018-09-26T08:32:10.108Z,11.38
2018-09-26T08:33:10.286Z,11.38
2018-09-26T08:34:10.342Z,11.44
2018-09-26T08:35:10.430Z,11.44
2018-09-26T08:36:10.304Z,11.56
2018-09-26T08:37:10.242Z,11.56
2018-09-26T08:38:10.246Z,11.56
2018-09-26T08:39:10.127Z,11.56
2018-09-26T08:40:10.253Z,11.63
2018-09-26T08:41:10.127Z,11.69
2018-09-26T08:42:10.275Z,11.75
2018-09-26T08:43:10.202Z,11.81
2018-09-26T08:44:10.240Z,11.81
2018-09-26T08:45:10.199Z,11.88
2018-09-26T08:46:10.113Z,11.88
2018-09-26T08:47:10.137Z,11.94
2018-09-26T08:48:10.293Z,12
2018-09-26T08:49:10.327Z,12.06
2018-09-26T08:50:09.994Z,12.13
2018-09-26T08:51:10.183Z,12.13
2018-09-26T08:52:10.165Z,12.13
2018-09-26T08:53:10.359Z,12.06
2018-09-26T08:54:10.212Z,12.06
2018-09-26T08:55:10.161Z,12.13
2018-09-26T08:56:10.154Z,12.06
2018-09-26T08:57:10.352Z,12.13
2018-09-26T08:58:10.108Z,12.06
2018-09-26T08:59:10.168Z,12.13
2018-09-26T09:00:10.223Z,12.19
2018-09-26T09:01:09.966Z,12.25
2018-09-26T09:02:09.990Z,12.25
2018-09-26T09:03:10.160Z,12.31
2018-09-26T09:04:09.998Z,12.37
2018-09-26T09:05:10.068Z,12.44
2018-09-26T09:06:10.574Z,12.5
2018-09-26T09:07:09.970Z,12.5
2018-09-26T09:08:10.002Z,12.56
2018-09-26T09:09:10.156Z,12.63
2018-09-26T09:10:10.078Z,12.69
2018-09-26T09:11:10.160Z,12.75
2018-09-26T09:12:10.362Z,12.81
2018-09-26T09:13:10.666Z,12.88
2018-09-26T09:14:10.630Z,12.94
2018-09-26T09:15:10.385Z,13
2018-09-26T09:16:10.825Z,13.06
2018-09-26T09:17:10.294Z,13
2018-09-26T09:18:10.394Z,13.06
2018-09-26T09:19:11.457Z,13.13
2018-09-26T09:20:10.702Z,13.19
2018-09-26T09:21:10.416Z,13.13
2018-09-26T09:22:10.421Z,13.19
2018-09-26T09:23:10.236Z,13.25
2018-09-26T09:24:10.351Z,13.25
2018-09-26T09:25:10.350Z,13.31
2018-09-26T09:26:10.691Z,13.38
2018-09-26T09:27:10.857Z,13.44
2018-09-26T09:28:10.263Z,13.44
2018-09-26T09:29:10.388Z,13.5
2018-09-26T09:30:10.390Z,13.44
2018-09-26T09:31:10.089Z,13.44
2018-09-26T09:32:10.853Z,13.56
2018-09-26T09:33:10.420Z,13.56
2018-09-26T09:34:10.664Z,13.62
2018-09-26T09:35:09.964Z,13.62
2018-09-26T09:36:10.306Z,13.62
2018-09-26T09:37:10.213Z,13.56
2018-09-26T09:38:10.458Z,13.56
2018-09-26T09:39:10.126Z,13.5
2018-09-26T09:40:10.261Z,13.44
2018-09-26T09:41:10.369Z,13.5
2018-09-26T09:42:11.308Z,13.56
2018-09-26T09:43:10.359Z,13.62
2018-09-26T09:44:11.491Z,13.69
2018-09-26T09:45:10.299Z,13.62
2018-09-26T09:46:10.081Z,13.69
2018-09-26T09:47:10.090Z,13.75
2018-09-26T09:48:10.292Z,13.75
2018-09-26T09:49:10.106Z,13.75
2018-09-26T09:50:10.579Z,13.69
2018-09-26T09:51:10.331Z,13.69
2018-09-26T09:52:10.184Z,13.69
2018-09-26T09:53:09.902Z,13.69
2018-09-26T09:54:10.245Z,13.69
2018-09-26T09:55:10.237Z,13.69
2018-09-26T09:56:10.565Z,13.75
2018-09-26T09:57:10.369Z,13.75
2018-09-26T09:58:10.388Z,13.75
2018-09-26T09:59:10.280Z,13.75
2018-09-26T10:00:11.021Z,13.81
2018-09-26T10:01:10.089Z,13.81
2018-09-26T10:02:10.504Z,13.88
2018-09-26T10:03:11.164Z,13.94
2018-09-26T10:04:10.240Z,13.94
2018-09-26T10:05:10.082Z,14.06
2018-09-26T10:06:10.112Z,14.13
2018-09-26T10:07:10.161Z,14.13
2018-09-26T10:08:10.749Z,14.19
2018-09-26T10:09:10.351Z,14.19
2018-09-26T10:10:10.389Z,14.31
2018-09-26T10:11:10.049Z,14.38
2018-09-26T10:12:12.429Z,14.44
2018-09-26T10:13:10.159Z,14.44
2018-09-26T10:14:11.086Z,14.44
2018-09-26T10:15:10.288Z,14.44
2018-09-26T10:16:10.310Z,14.44
2018-09-26T10:17:09.884Z,14.25
2018-09-26T10:18:10.340Z,14.19
2018-09-26T10:19:09.945Z,14.25
2018-09-26T10:20:10.259Z,14.31
2018-09-26T10:21:10.067Z,14.38
2018-09-26T10:22:10.053Z,14.44
2018-09-26T10:23:10.267Z,14.5
2018-09-26T10:24:10.349Z,14.56
2018-09-26T10:25:10.908Z,14.63
2018-09-26T10:26:10.597Z,14.63
2018-09-26T10:27:10.329Z,14.69
2018-09-26T10:28:10.069Z,14.69
2018-09-26T10:29:10.014Z,14.75
2018-09-26T10:30:10.082Z,14.75
2018-09-26T10:31:10.079Z,14.81
2018-09-26T10:32:10.224Z,14.81
2018-09-26T10:33:10.331Z,14.87
2018-09-26T10:34:10.112Z,14.87
2018-09-26T10:35:10.160Z,14.94
2018-09-26T10:36:09.919Z,15
2018-09-26T10:37:10.269Z,15
2018-09-26T10:38:10.633Z,15
2018-09-26T10:39:10.247Z,15
2018-09-26T10:40:10.720Z,15
2018-09-26T10:41:09.883Z,15
2018-09-26T10:42:10.119Z,15.06
2018-09-26T10:43:10.147Z,15.06
2018-09-26T10:44:10.136Z,15
2018-09-26T10:45:10.382Z,14.94
2018-09-26T10:46:10.062Z,14.87
2018-09-26T10:47:09.995Z,14.94
2018-09-26T10:48:10.295Z,14.94
2018-09-26T10:49:10.175Z,14.94
2018-09-26T10:50:10.441Z,15
2018-09-26T10:51:10.537Z,15
2018-09-26T10:52:10.129Z,15.06
2018-09-26T10:53:09.829Z,15.06
2018-09-26T10:54:10.078Z,15.06
2018-09-26T10:55:09.900Z,15.06
2018-09-26T10:56:10.542Z,15
2018-09-26T10:57:10.192Z,14.87
2018-09-26T10:58:10.090Z,14.87
2018-09-26T10:59:10.126Z,14.87
2018-09-26T11:00:10.275Z,14.87
2018-09-26T11:01:10.000Z,14.87
2018-09-26T11:02:11.630Z,14.87
2018-09-26T11:03:10.316Z,14.87
2018-09-26T11:04:10.473Z,14.94
2018-09-26T11:05:09.969Z,14.94
2018-09-26T11:06:09.977Z,15.06
2018-09-26T11:07:09.810Z,15.13
2018-09-26T11:08:10.555Z,15.25
2018-09-26T11:09:10.496Z,15.31
2018-09-26T11:10:10.334Z,15.38
2018-09-26T11:11:10.042Z,15.5
2018-09-26T11:12:10.254Z,15.56
2018-09-26T11:13:10.118Z,15.5
2018-09-26T11:14:10.236Z,15.56
2018-09-26T11:15:10.437Z,15.63
2018-09-26T11:16:10.423Z,15.75
2018-09-26T11:17:10.085Z,15.81
2018-09-26T11:18:09.898Z,15.94
2018-09-26T11:19:10.007Z,16
2018-09-26T11:20:10.284Z,16
2018-09-26T11:21:10.355Z,16
2018-09-26T11:22:10.559Z,15.81
2018-09-26T11:23:09.805Z,15.75
2018-09-26T11:24:09.928Z,15.75
2018-09-26T11:25:10.036Z,15.81
2018-09-26T11:26:10.723Z,15.88
2018-09-26T11:27:10.475Z,15.88
2018-09-26T11:28:10.536Z,15.94
2018-09-26T11:29:09.950Z,16
2018-09-26T11:30:10.274Z,16
2018-09-26T11:31:09.988Z,16
2018-09-26T11:32:10.352Z,16
2018-09-26T11:33:10.461Z,16.06
2018-09-26T11:34:10.276Z,16.12
2018-09-26T11:35:09.843Z,16.12
2018-09-26T11:36:10.086Z,16.12
2018-09-26T11:37:10.257Z,16.19
2018-09-26T11:38:10.350Z,16.25
2018-09-26T11:39:10.108Z,16.25
2018-09-26T11:40:10.320Z,16.31
2018-09-26T11:41:09.855Z,16.37
2018-09-26T11:42:09.777Z,16.31
2018-09-26T11:43:10.277Z,16.37
2018-09-26T11:44:10.288Z,16.37
2018-09-26T11:45:10.046Z,16.44
2018-09-26T11:46:10.208Z,16.44
2018-09-26T11:47:10.061Z,16.44
2018-09-26T11:48:09.787Z,16.44
2018-09-26T11:49:09.942Z,16.25
2018-09-26T11:50:10.474Z,16.25
2018-09-26T11:51:09.924Z,16.25
2018-09-26T11:52:10.292Z,16.31
2018-09-26T11:53:09.912Z,16.31
2018-09-26T11:54:10.386Z,16.37
2018-09-26T11:55:09.958Z,16.44
2018-09-26T11:56:10.265Z,16.5
2018-09-26T11:57:10.065Z,16.56
2018-09-26T11:58:10.203Z,16.62
2018-09-26T11:59:10.012Z,16.62
2018-09-26T12:00:09.878Z,16.69
2018-09-26T12:01:09.884Z,16.69
2018-09-26T12:02:10.685Z,16.62
2018-09-26T12:03:10.226Z,16.56
2018-09-26T12:04:10.243Z,16.5
2018-09-26T12:05:10.244Z,16.5
2018-09-26T12:06:10.144Z,16.5
2018-09-26T12:08:10.316Z,16.5
2018-09-26T12:09:09.921Z,16.5
2018-09-26T12:10:10.624Z,16.56
2018-09-26T12:11:10.010Z,16.56
2018-09-26T12:12:10.178Z,16.62
2018-09-26T12:13:10.235Z,16.62
2018-09-26T12:14:09.985Z,16.69
2018-09-26T12:15:10.105Z,16.69
2018-09-26T12:16:10.022Z,16.75
2018-09-26T12:17:09.783Z,16.75
2018-09-26T12:18:10.078Z,16.75
2018-09-26T12:19:10.343Z,16.81
2018-09-26T12:20:10.026Z,16.81
2018-09-26T12:21:09.797Z,16.81
2018-09-26T12:22:10.787Z,16.81
2018-09-26T12:23:09.822Z,16.81
2018-09-26T12:24:10.173Z,16.87
2018-09-26T12:25:10.248Z,16.94
2018-09-26T12:26:10.180Z,16.94
2018-09-26T12:27:10.162Z,17
2018-09-26T12:28:11.078Z,17
2018-09-26T12:29:09.862Z,17.06
2018-09-26T12:30:10.282Z,17.06
2018-09-26T12:31:09.957Z,17.12
2018-09-26T12:32:10.008Z,17.12
2018-09-26T12:33:10.044Z,17.19
2018-09-26T12:34:10.664Z,17.19
2018-09-26T12:35:09.864Z,17.12
2018-09-26T12:36:10.093Z,17.19
2018-09-26T12:37:09.672Z,17.19
2018-09-26T12:38:09.841Z,17.19
2018-09-26T12:39:09.716Z,17.19
2018-09-26T12:40:10.483Z,17.19
2018-09-26T12:41:09.932Z,17.25
2018-09-26T12:42:10.389Z,17.25
2018-09-26T12:43:13.206Z,17.25
2018-09-26T12:44:09.874Z,17.31
2018-09-26T12:45:10.006Z,17.31
2018-09-26T12:46:10.173Z,17.25
2018-09-26T12:47:10.213Z,17.25
2018-09-26T12:48:10.680Z,17.31
2018-09-26T12:49:09.705Z,17.31
2018-09-26T12:50:09.698Z,17.31
2018-09-26T12:51:09.853Z,17.31
2018-09-26T12:52:10.698Z,17.25
2018-09-26T12:53:09.874Z,17.25
2018-09-26T12:54:11.061Z,17.25
2018-09-26T12:55:10.151Z,17.25
2018-09-26T12:56:10.239Z,17.25
2018-09-26T12:57:10.065Z,17.19
2018-09-26T12:58:10.003Z,17.25
2018-09-26T12:59:11.127Z,17.25
2018-09-26T13:00:10.283Z,17.19
2018-09-26T13:01:09.851Z,17.19
2018-09-26T13:02:10.278Z,17.25
2018-09-26T13:03:10.044Z,17.25
2018-09-26T13:04:10.456Z,17.31
2018-09-26T13:05:09.947Z,17.31
2018-09-26T13:06:10.197Z,17.31
2018-09-26T13:07:09.774Z,17.31
2018-09-26T13:08:10.610Z,17.37
2018-09-26T13:09:10.061Z,17.44
2018-09-26T13:10:10.302Z,17.44
2018-09-26T13:11:09.984Z,17.44
2018-09-26T13:12:10.252Z,17.44